createdAt,value
2022-11-26T00:02:30.441Z,5.68
2022-11-26T00:05:21.356Z,6.00
2022-11-26T00:08:20.526Z,5.18
2022-11-26T00:11:11.480Z,5.70
2022-11-26T00:14:00.303Z,6.40
2022-11-26T00:16:47.451Z,5.18
2022-11-26T00:19:34.645Z,5.50
2022-11-26T00:22:28.806Z,5.63
2022-11-26T00:25:26.384Z,6.00
2022-11-26T00:28:25.923Z,5.57
2022-11-26T00:31:16.127Z,5.53
2022-11-26T00:34:06.543Z,6.53
2022-11-26T00:36:56.239Z,6.50
2022-11-26T00:39:43.441Z,5.22
2022-11-26T00:42:30.679Z,5.53
2022-11-26T00:45:24.535Z,4.82
2022-11-26T00:48:11.677Z,5.50
2022-11-26T00:50:58.820Z,6.60
2022-11-26T00:53:48.831Z,5.55
2022-11-26T00:56:38.637Z,5.82
2022-11-26T00:59:25.737Z,5.80
2022-11-26T01:02:12.796Z,6.53
2022-11-26T01:04:59.974Z,5.93
2022-11-26T01:07:48.124Z,5.20
2022-11-26T01:10:37.926Z,5.07
2022-11-26T01:13:28.134Z,4.80
2022-11-26T01:16:23.410Z,5.40
2022-11-26T01:19:13.072Z,5.03
2022-11-26T01:22:00.168Z,4.90
2022-11-26T01:24:48.287Z,4.85
2022-11-26T01:27:35.356Z,5.05
2022-11-26T01:30:29.107Z,5.00
2022-11-26T01:33:16.303Z,5.57
2022-11-26T01:36:03.592Z,5.68
2022-11-26T01:38:52.773Z,6.82
2022-11-26T01:41:53.230Z,7.32
2022-11-26T01:44:40.520Z,7.43
2022-11-26T01:47:31.639Z,8.43
2022-11-26T01:50:44.593Z,9.50
2022-11-26T01:53:55.119Z,9.00
2022-11-26T01:56:48.522Z,9.38
2022-11-26T01:59:40.032Z,9.90
2022-11-26T02:02:28.628Z,10.82
2022-11-26T02:05:27.806Z,10.75
2022-11-26T02:08:17.588Z,11.02
2022-11-26T02:11:22.560Z,10.75
2022-11-26T02:14:32.651Z,10.02
2022-11-26T02:17:36.324Z,9.82
2022-11-26T02:20:51.211Z,10.07
2022-11-26T02:23:38.399Z,11.02
2022-11-26T02:26:49.542Z,10.63
2022-11-26T02:30:01.221Z,9.88
2022-11-26T02:33:04.715Z,10.30
2022-11-26T02:36:04.623Z,9.45
2022-11-26T02:38:53.209Z,10.45
2022-11-26T02:41:46.218Z,8.95
2022-11-26T02:44:44.910Z,9.88
2022-11-26T02:47:33.673Z,10.70
2022-11-26T02:50:26.363Z,10.55
2022-11-26T02:56:08.767Z,9.00
2022-11-26T02:58:57.080Z,10.60
2022-11-26T03:01:47.186Z,10.75
2022-11-26T03:04:39.589Z,10.52
2022-11-26T03:10:20.300Z,10.30
2022-11-26T03:13:09.969Z,10.38
2022-11-26T03:15:57.424Z,10.65
2022-11-26T03:18:46.981Z,9.43
2022-11-26T03:21:35.706Z,13.30
2022-11-26T03:24:24.376Z,11.75
2022-11-26T03:27:13.929Z,10.80
2022-11-26T03:30:01.235Z,9.98
2022-11-26T03:32:52.278Z,9.13
2022-11-26T03:35:42.402Z,9.27
2022-11-26T03:38:29.476Z,9.30
2022-11-26T03:41:16.529Z,11.07
2022-11-26T03:44:03.966Z,9.52
2022-11-26T03:46:51.064Z,10.48
2022-11-26T03:49:38.264Z,9.73
2022-11-26T03:52:25.448Z,9.93
2022-11-26T03:55:12.568Z,9.90
2022-11-26T03:57:59.661Z,10.40
2022-11-26T04:00:46.871Z,10.32
2022-11-26T04:03:34.029Z,10.88
2022-11-26T04:06:22.320Z,10.82
2022-11-26T04:09:09.610Z,10.95
2022-11-26T04:11:56.733Z,12.00
2022-11-26T04:14:43.841Z,10.88
2022-11-26T04:17:30.916Z,13.18
2022-11-26T04:20:18.010Z,13.77
2022-11-26T04:23:07.551Z,12.77
2022-11-26T04:25:54.653Z,13.88
2022-11-26T04:28:43.874Z,12.18
2022-11-26T04:31:31.341Z,14.38
2022-11-26T04:34:18.440Z,11.40
2022-11-26T04:37:08.223Z,11.85
2022-11-26T04:39:58.156Z,11.90
2022-11-26T04:42:45.349Z,10.65
2022-11-26T04:45:32.517Z,11.38
2022-11-26T04:48:22.206Z,10.15
2022-11-26T04:51:09.417Z,10.35
2022-11-26T04:54:00.361Z,10.45
2022-11-26T04:56:49.846Z,10.60
2022-11-26T04:59:36.959Z,11.18
2022-11-26T05:02:26.313Z,11.13
2022-11-26T05:05:13.755Z,11.30
2022-11-26T05:08:00.890Z,11.20
2022-11-26T05:10:54.433Z,11.57
2022-11-26T05:13:44.234Z,11.00
2022-11-26T05:16:32.888Z,10.98
2022-11-26T05:19:22.412Z,10.40
2022-11-26T05:22:10.172Z,11.30
2022-11-26T05:24:57.210Z,10.65
2022-11-26T05:27:44.343Z,9.98
2022-11-26T05:30:31.546Z,9.90
2022-11-26T05:33:21.179Z,9.85
2022-11-26T05:36:08.603Z,10.93
2022-11-26T05:38:57.873Z,10.68
2022-11-26T05:41:44.941Z,12.10
2022-11-26T05:44:32.184Z,12.52
2022-11-26T05:47:19.251Z,13.82
2022-11-26T05:50:07.192Z,12.45
2022-11-26T05:52:54.282Z,12.10
2022-11-26T05:55:41.410Z,13.50
2022-11-26T05:58:30.619Z,14.90
2022-11-26T06:01:17.630Z,14.82
2022-11-26T06:04:04.992Z,16.20
2022-11-26T06:06:52.009Z,15.98
2022-11-26T06:09:39.394Z,17.52
2022-11-26T06:12:26.960Z,16.73
2022-11-26T06:15:16.597Z,17.35
2022-11-26T06:18:06.201Z,18.90
2022-11-26T06:20:53.500Z,19.17
2022-11-26T06:23:47.432Z,16.17
2022-11-26T06:26:38.928Z,16.70
2022-11-26T06:29:28.135Z,15.73
2022-11-26T06:32:17.659Z,15.13
2022-11-26T06:35:07.934Z,16.10
2022-11-26T06:37:55.045Z,16.83
2022-11-26T06:40:42.113Z,17.75
2022-11-26T06:43:30.628Z,16.50
2022-11-26T06:46:17.896Z,16.58
2022-11-26T06:49:06.494Z,18.52
2022-11-26T06:51:54.514Z,17.17
2022-11-26T06:54:41.596Z,16.42
2022-11-26T06:57:28.664Z,18.13
2022-11-26T07:00:16.006Z,17.65
2022-11-26T07:03:05.304Z,16.98
2022-11-26T07:05:54.762Z,18.80
2022-11-26T07:08:41.845Z,20.63
2022-11-26T07:11:28.949Z,19.70
2022-11-26T07:14:18.205Z,20.63
2022-11-26T07:17:05.285Z,20.23
2022-11-26T07:19:52.377Z,30.65
2022-11-26T07:22:39.515Z,26.73
2022-11-26T07:25:29.711Z,25.80
2022-11-26T07:28:16.768Z,25.08
2022-11-26T07:31:11.552Z,21.05
2022-11-26T07:34:01.844Z,20.17
2022-11-26T07:36:49.597Z,20.13
2022-11-26T07:39:38.080Z,24.35
2022-11-26T07:42:25.329Z,29.85
2022-11-26T07:45:12.429Z,25.90
2022-11-26T07:48:02.563Z,19.27
2022-11-26T07:50:52.295Z,20.88
2022-11-26T07:53:39.324Z,21.83
2022-11-26T07:56:28.144Z,22.23
2022-11-26T07:59:15.295Z,23.63
2022-11-26T08:02:04.882Z,20.50
2022-11-26T08:04:51.972Z,21.98
2022-11-26T08:07:39.233Z,41.47
2022-11-26T08:10:26.598Z,26.00
2022-11-26T08:13:13.748Z,25.02
2022-11-26T08:16:03.307Z,25.05
2022-11-26T08:18:54.900Z,19.65
2022-11-26T08:21:42.157Z,20.20
2022-11-26T08:24:31.106Z,18.73
2022-11-26T08:27:19.203Z,18.15
2022-11-26T08:30:07.053Z,18.00
2022-11-26T08:32:56.400Z,19.63
2022-11-26T08:36:05.400Z,22.00
2022-11-26T08:38:53.270Z,22.60
2022-11-26T08:41:52.729Z,23.58
2022-11-26T08:44:40.438Z,25.90
2022-11-26T08:47:28.855Z,26.60
2022-11-26T08:50:16.431Z,23.75
2022-11-26T08:53:08.313Z,22.77
2022-11-26T08:56:03.107Z,24.02
2022-11-26T08:58:52.311Z,24.55
2022-11-26T09:01:40.611Z,24.77
2022-11-26T09:04:29.006Z,26.05
2022-11-26T09:07:16.621Z,23.13
2022-11-26T09:10:04.216Z,23.02
2022-11-26T09:12:53.915Z,20.73
2022-11-26T09:15:42.253Z,19.50
2022-11-26T09:18:29.436Z,18.02
2022-11-26T09:21:19.104Z,14.20
2022-11-26T09:24:06.753Z,9.55
2022-11-26T09:26:56.630Z,9.18
2022-11-26T09:29:43.784Z,7.07
2022-11-26T09:32:34.056Z,4.97
2022-11-26T09:35:21.586Z,5.35
2022-11-26T09:38:08.684Z,4.85
2022-11-26T09:41:05.184Z,4.85
2022-11-26T09:43:55.095Z,4.85
2022-11-26T09:47:11.141Z,4.70
2022-11-26T09:50:07.816Z,5.07
2022-11-26T09:53:05.176Z,5.40
2022-11-26T09:55:56.294Z,5.47
2022-11-26T09:58:57.864Z,5.05
2022-11-26T10:01:45.319Z,5.10
2022-11-26T10:04:35.263Z,4.70
2022-11-26T10:07:56.494Z,5.10
2022-11-26T10:11:01.198Z,4.15
2022-11-26T10:14:30.420Z,4.43
2022-11-26T10:17:31.934Z,4.72
2022-11-26T10:20:34.156Z,4.15
2022-11-26T10:23:35.809Z,4.18
2022-11-26T10:26:41.867Z,4.55
2022-11-26T10:29:40.854Z,2.92
2022-11-26T10:32:35.262Z,2.80
2022-11-26T10:35:27.583Z,2.72
2022-11-26T10:38:14.752Z,2.60
2022-11-26T10:41:04.363Z,2.20
2022-11-26T10:43:51.621Z,2.30
2022-11-26T10:46:38.764Z,2.05
2022-11-26T10:49:30.244Z,2.08
2022-11-26T10:52:24.552Z,2.28
2022-11-26T10:55:30.671Z,2.58
2022-11-26T10:58:41.185Z,2.22
2022-11-26T11:01:36.856Z,2.55
2022-11-26T11:04:34.593Z,2.95
2022-11-26T11:07:39.260Z,3.25
2022-11-26T11:10:29.160Z,3.03
2022-11-26T11:13:16.440Z,2.60
2022-11-26T11:16:03.981Z,2.78
2022-11-26T11:19:00.121Z,2.63
2022-11-26T11:21:48.488Z,2.47
2022-11-26T11:24:36.168Z,2.67
2022-11-26T11:27:43.426Z,2.63
2022-11-26T11:30:34.926Z,2.47
2022-11-26T11:33:25.094Z,2.38
2022-11-26T11:36:13.272Z,2.40
2022-11-26T11:39:02.545Z,2.60
2022-11-26T11:41:51.801Z,3.22
2022-11-26T11:44:45.740Z,3.38
2022-11-26T11:47:39.141Z,2.38
2022-11-26T11:51:23.028Z,2.17
2022-11-26T11:54:31.229Z,2.65
2022-11-26T11:57:35.830Z,2.30
2022-11-26T12:00:48.215Z,2.80
2022-11-26T12:04:17.967Z,2.25
2022-11-26T12:07:29.435Z,2.40
2022-11-26T12:10:39.441Z,2.72
2022-11-26T12:13:29.503Z,2.38
2022-11-26T12:16:18.953Z,2.10
2022-11-26T12:19:33.588Z,1.70
2022-11-26T12:22:26.781Z,1.92
2022-11-26T12:25:33.563Z,2.35
2022-11-26T12:28:37.092Z,1.73
2022-11-26T12:31:40.127Z,2.20
2022-11-26T12:34:35.060Z,2.50
2022-11-26T12:37:46.845Z,2.08
2022-11-26T12:40:44.194Z,1.85
2022-11-26T12:44:05.291Z,1.92
2022-11-26T12:47:24.549Z,2.17
2022-11-26T12:50:24.293Z,2.60
2022-11-26T12:53:22.008Z,2.53
2022-11-26T12:56:38.684Z,1.90
2022-11-26T12:59:50.646Z,2.22
2022-11-26T13:02:43.683Z,2.80
2022-11-26T13:05:57.057Z,2.70
2022-11-26T13:08:50.588Z,2.40
2022-11-26T13:11:54.702Z,2.72
2022-11-26T13:14:50.901Z,2.75
2022-11-26T13:17:48.623Z,2.20
2022-11-26T13:21:16.909Z,2.67
2022-11-26T13:24:38.202Z,2.42
2022-11-26T13:27:44.512Z,3.05
2022-11-26T13:30:43.013Z,2.33
2022-11-26T13:33:50.785Z,1.83
2022-11-26T13:36:43.518Z,3.00
2022-11-26T13:39:46.659Z,2.38
2022-11-26T13:42:54.265Z,1.92
2022-11-26T13:46:02.715Z,2.65
2022-11-26T13:49:13.089Z,2.30
2022-11-26T13:52:15.276Z,2.45
2022-11-26T13:55:20.873Z,2.38
2022-11-26T13:58:17.126Z,1.85
2022-11-26T14:01:41.430Z,2.05
2022-11-26T14:04:48.568Z,2.20
2022-11-26T14:07:36.223Z,2.10
2022-11-26T14:10:35.946Z,2.33
2022-11-26T14:13:23.201Z,2.10
2022-11-26T14:16:13.153Z,2.13
2022-11-26T14:19:00.940Z,2.60
2022-11-26T14:22:03.000Z,2.20
2022-11-26T14:24:53.043Z,1.73
2022-11-26T14:27:55.101Z,2.03
2022-11-26T14:30:42.330Z,2.70
2022-11-26T14:33:30.407Z,2.45
2022-11-26T14:36:28.135Z,2.10
2022-11-26T14:39:17.159Z,2.45
2022-11-26T14:42:06.535Z,2.33
2022-11-26T14:45:17.016Z,3.15
2022-11-26T14:48:05.370Z,3.17
2022-11-26T14:50:54.430Z,4.63
2022-11-26T14:53:47.988Z,3.92
2022-11-26T14:56:41.817Z,3.42
2022-11-26T14:59:35.059Z,3.10
2022-11-26T15:02:25.909Z,2.50
2022-11-26T15:05:24.459Z,3.50
2022-11-26T15:08:20.868Z,3.25
2022-11-26T15:11:08.439Z,3.67
2022-11-26T15:13:56.867Z,3.45
2022-11-26T15:16:53.959Z,3.88
2022-11-26T15:19:42.903Z,3.42
2022-11-26T15:22:40.048Z,4.30
2022-11-26T15:25:29.837Z,5.32
2022-11-26T15:28:19.782Z,4.30
2022-11-26T15:31:10.431Z,4.32
2022-11-26T15:33:57.917Z,3.70
2022-11-26T15:36:45.135Z,4.47
2022-11-26T15:39:32.587Z,4.28
2022-11-26T15:42:28.373Z,4.22
2022-11-26T15:45:21.321Z,3.70
2022-11-26T15:48:50.442Z,4.60
2022-11-26T15:51:57.761Z,5.45
2022-11-26T15:55:12.105Z,8.05
2022-11-26T15:58:07.597Z,8.18
2022-11-26T16:01:01.298Z,7.50
2022-11-26T16:03:55.127Z,7.20
2022-11-26T16:06:42.991Z,5.65
2022-11-26T16:09:32.739Z,6.38
2022-11-26T16:12:34.294Z,7.05
2022-11-26T16:15:27.053Z,7.68
2022-11-26T16:21:18.785Z,8.13
2022-11-26T16:24:21.958Z,8.05
2022-11-26T16:27:12.216Z,8.35
2022-11-26T16:30:01.868Z,12.02
2022-11-26T16:32:53.719Z,13.00
2022-11-26T16:35:46.075Z,9.80
2022-11-26T16:38:33.786Z,11.52
2022-11-26T16:41:22.630Z,10.90
2022-11-26T16:44:12.008Z,11.75
2022-11-26T16:47:01.305Z,13.57
2022-11-26T16:49:48.443Z,16.02
2022-11-26T16:52:40.960Z,15.38
2022-11-26T16:55:28.408Z,16.92
2022-11-26T16:58:36.313Z,26.58
2022-11-26T17:01:23.538Z,30.15
2022-11-26T17:04:13.433Z,24.88
2022-11-26T17:07:00.992Z,24.00
2022-11-26T17:09:48.581Z,19.38
2022-11-26T17:12:40.594Z,19.67
2022-11-26T17:15:27.902Z,22.27
2022-11-26T17:18:23.622Z,21.08
2022-11-26T17:21:10.930Z,23.35
2022-11-26T17:23:58.067Z,23.17
2022-11-26T17:26:45.151Z,20.90
2022-11-26T17:29:32.823Z,21.70
2022-11-26T17:32:20.188Z,22.45
2022-11-26T17:35:08.340Z,22.83
2022-11-26T17:37:57.771Z,21.65
2022-11-26T17:40:46.445Z,21.55
2022-11-26T17:43:33.597Z,22.10
2022-11-26T17:46:21.686Z,19.70
2022-11-26T17:49:09.871Z,17.73
2022-11-26T17:51:57.172Z,18.95
2022-11-26T17:54:45.387Z,24.65
2022-11-26T17:57:32.662Z,25.50
2022-11-26T18:00:28.324Z,29.88
2022-11-26T18:03:17.734Z,32.92
2022-11-26T18:07:07.522Z,33.17
2022-11-26T18:09:57.915Z,28.88
2022-11-26T18:12:45.394Z,31.25
2022-11-26T18:15:35.523Z,32.65
2022-11-26T18:18:22.678Z,30.92
2022-11-26T18:21:12.062Z,29.02
2022-11-26T18:23:59.164Z,30.23
2022-11-26T18:26:46.790Z,30.30
2022-11-26T18:29:33.921Z,33.72
2022-11-26T18:32:21.179Z,33.80
2022-11-26T18:35:09.250Z,36.88
2022-11-26T18:37:56.364Z,30.08
2022-11-26T18:40:45.633Z,31.25
2022-11-26T18:43:34.757Z,34.58
2022-11-26T18:46:22.070Z,34.65
2022-11-26T18:49:09.831Z,34.60
2022-11-26T18:51:57.126Z,40.90
2022-11-26T18:54:44.233Z,41.75
2022-11-26T18:57:35.007Z,41.20
2022-11-26T19:00:22.308Z,41.10
2022-11-26T19:03:09.851Z,37.17
2022-11-26T19:05:57.139Z,36.88
2022-11-26T19:08:44.757Z,39.83
2022-11-26T19:11:32.749Z,36.10
2022-11-26T19:14:21.151Z,38.13
2022-11-26T19:17:08.512Z,38.47
2022-11-26T19:19:55.789Z,36.30
2022-11-26T19:22:46.545Z,37.28
2022-11-26T19:25:34.019Z,37.20
2022-11-26T19:28:28.025Z,35.65
2022-11-26T19:31:22.013Z,36.30
2022-11-26T19:34:13.935Z,37.17
2022-11-26T19:37:03.621Z,41.00
2022-11-26T19:39:50.932Z,39.92
2022-11-26T19:42:38.212Z,41.58
2022-11-26T19:45:28.153Z,37.80
2022-11-26T19:48:15.371Z,38.70
2022-11-26T19:51:04.879Z,38.70
2022-11-26T19:53:54.920Z,37.95
2022-11-26T19:56:45.997Z,43.00
2022-11-26T19:59:33.758Z,40.13
2022-11-26T20:02:23.461Z,39.90
2022-11-26T20:05:15.422Z,38.08
2022-11-26T20:08:02.817Z,41.42
2022-11-26T20:10:51.215Z,40.17
2022-11-26T20:13:42.775Z,39.38
2022-11-26T20:16:32.535Z,41.42
2022-11-26T20:19:22.203Z,42.45
2022-11-26T20:22:10.065Z,43.53
2022-11-26T20:25:00.151Z,52.25
2022-11-26T20:27:47.302Z,48.78
2022-11-26T20:30:34.655Z,49.80
2022-11-26T20:33:23.406Z,51.10
2022-11-26T20:36:13.405Z,49.47
2022-11-26T20:39:02.245Z,50.15
2022-11-26T20:41:50.269Z,52.00
2022-11-26T20:44:38.925Z,49.00
2022-11-26T20:47:27.076Z,56.63
2022-11-26T20:50:15.078Z,52.60
2022-11-26T20:53:04.623Z,53.85
2022-11-26T20:55:56.453Z,54.92
2022-11-26T20:58:43.769Z,53.93
2022-11-26T21:01:33.527Z,58.55
2022-11-26T21:04:20.944Z,57.88
2022-11-26T21:07:08.276Z,52.30
2022-11-26T21:09:56.839Z,58.20
2022-11-26T21:12:44.222Z,53.97
2022-11-26T21:15:33.958Z,59.08
2022-11-26T21:18:22.423Z,54.38
2022-11-26T21:21:17.089Z,56.60
2022-11-26T21:24:06.210Z,63.75
2022-11-26T21:26:58.272Z,66.25
2022-11-26T21:29:46.623Z,69.55
2022-11-26T21:32:34.306Z,66.40
2022-11-26T21:35:21.614Z,59.55
2022-11-26T21:38:08.929Z,59.92
2022-11-26T21:40:56.057Z,65.07
2022-11-26T21:43:45.222Z,79.93
2022-11-26T21:46:37.930Z,67.82
2022-11-26T21:49:28.248Z,62.65
2022-11-26T21:52:15.301Z,59.33
2022-11-26T21:55:03.927Z,54.45
2022-11-26T21:57:51.506Z,60.35
2022-11-26T22:00:38.901Z,56.25
2022-11-26T22:03:26.044Z,42.03
2022-11-26T22:06:13.504Z,36.88
2022-11-26T22:09:05.267Z,36.13
2022-11-26T22:11:52.473Z,33.17
2022-11-26T22:14:44.448Z,30.80
2022-11-26T22:17:31.604Z,34.08
2022-11-26T22:20:19.023Z,35.42
2022-11-26T22:23:09.240Z,37.83
2022-11-26T22:25:56.329Z,59.03
2022-11-26T22:28:43.460Z,72.60
2022-11-26T22:31:38.121Z,56.35
2022-11-26T22:34:27.318Z,45.58
2022-11-26T22:37:14.839Z,35.20
2022-11-26T22:40:01.963Z,32.97
2022-11-26T22:42:49.375Z,39.60
2022-11-26T22:45:38.491Z,32.53
2022-11-26T22:48:26.007Z,39.20
2022-11-26T22:51:13.366Z,42.78
2022-11-26T22:54:09.579Z,39.58
2022-11-26T22:56:59.691Z,38.45
2022-11-26T22:59:49.277Z,37.90
2022-11-26T23:02:36.494Z,41.97
2022-11-26T23:05:23.699Z,37.67
2022-11-26T23:08:12.804Z,33.13
2022-11-26T23:11:06.908Z,31.00
2022-11-26T23:13:55.381Z,44.53
2022-11-26T23:16:51.529Z,39.92
2022-11-26T23:23:41.045Z,35.58
2022-11-26T23:26:31.085Z,34.05
2022-11-26T23:29:18.252Z,29.80
2022-11-26T23:32:06.427Z,32.17
2022-11-26T23:34:53.854Z,27.60
2022-11-26T23:37:41.135Z,28.90
2022-11-26T23:40:35.910Z,38.13
2022-11-26T23:43:25.119Z,42.30
2022-11-26T23:46:31.498Z,46.17
2022-11-26T23:49:18.770Z,48.85
2022-11-26T23:52:08.422Z,41.50
2022-11-26T23:54:55.628Z,51.65
2022-11-26T23:57:42.807Z,61.15
